Time;durP1;ratioP1;P1;durP2;ratioP2;P2;SDS_P1;SDS_P2;PMS_P1;PMS_P2;Temp;Humidity;BMP_temperature;BMP_pressure;BME280_temperature;BME280_humidity;BME280_pressure;Samples;Min_cycle;Max_cycle;Signal;HPM_P1;HPM_P2
2021/08/30 00:08:57;;;;;;;12.43;8.77;;;;;;;13.50;100.00;98893.50;5049248;28;20499;-83
2021/08/30 00:25:05;;;;;;;16.95;10.23;;;;;;;13.53;100.00;98887.63;5047637;28;20051;-83
2021/08/30 00:27:32;;;;;;;17.25;10.57;;;;;;;13.55;100.00;98885.50;5043426;28;20272;-84
2021/08/30 00:29:59;;;;;;;17.02;11.23;;;;;;;13.58;100.00;98885.94;5046271;28;20045;-83
2021/08/30 00:32:26;;;;;;;18.17;11.57;;;;;;;13.58;100.00;98880.47;5043529;28;20469;-84
2021/08/30 00:41:40;;;;;;;18.63;12.10;;;;;;;13.59;100.00;98875.84;5051902;28;20063;-84
2021/08/30 00:57:36;;;;;;;14.18;10.50;;;;;;;13.52;100.00;98875.00;5048703;28;20423;-84
2021/08/30 01:00:04;;;;;;;15.77;11.00;;;;;;;13.49;100.00;98854.44;5051996;28;20045;-83
2021/08/30 01:02:43;;;;;;;16.02;11.00;;;;;;;13.49;100.00;98870.81;5051991;28;20037;-84
2021/08/30 01:05:16;;;;;;;15.90;10.60;;;;;;;13.49;100.00;98861.75;5053217;28;20048;-84
2021/08/30 01:07:53;;;;;;;17.70;11.93;;;;;;;13.47;100.00;98855.69;5053278;28;20057;-84
2021/08/30 01:10:36;;;;;;;15.88;11.23;;;;;;;13.50;100.00;98860.72;5053624;28;20115;-84
2021/08/30 01:13:10;;;;;;;21.15;12.55;;;;;;;13.63;100.00;98874.38;5042330;28;20459;-84
2021/08/30 01:15:40;;;;;;;18.95;11.35;;;;;;;13.44;100.00;98846.03;5052883;28;20052;-83
2021/08/30 01:18:09;;;;;;;;;;;;;;;13.52;100.00;98870.41;5053124;28;20056;-84
2021/08/30 01:20:50;;;;;;;14.93;10.10;;;;;;;13.42;100.00;98837.22;5052853;28;20315;-84
2021/08/30 01:23:26;;;;;;;18.38;11.90;;;;;;;13.51;100.00;98849.59;5047542;28;20060;-84
2021/08/30 01:25:57;;;;;;;17.20;10.85;;;;;;;13.62;100.00;98862.63;5053390;28;20116;-83
2021/08/30 01:28:30;;;;;;;16.58;11.98;;;;;;;13.58;100.00;98846.88;5051121;28;20048;-84
2021/08/30 01:31:00;;;;;;;19.00;11.57;;;;;;;13.54;100.00;98849.16;5053529;28;20052;-84
2021/08/30 01:33:34;;;;;;;16.38;11.55;;;;;;;13.57;100.00;98854.19;5051345;28;20056;-84
2021/08/30 01:36:02;;;;;;;14.98;11.65;;;;;;;13.66;100.00;98851.25;5046981;28;20053;-84
2021/08/30 01:38:39;;;;;;;14.82;11.07;;;;;;;13.48;100.00;98855.47;5049245;28;20045;-85
2021/08/30 01:41:09;;;;;;;14.63;10.57;;;;;;;13.57;100.00;98867.03;5044296;28;20045;-84
2021/08/30 01:43:39;;;;;;;17.75;11.13;;;;;;;13.49;100.00;98859.91;5051436;28;20060;-84
2021/08/30 01:46:06;;;;;;;18.27;11.02;;;;;;;13.49;100.00;98843.50;5051710;28;20292;-84
2021/08/30 01:48:35;;;;;;;13.57;9.70;;;;;;;13.45;100.00;98847.72;5052530;28;20487;-84
2021/08/30 01:51:05;;;;;;;18.23;10.65;;;;;;;13.41;100.00;98841.84;5052484;28;20408;-84
2021/08/30 01:53:32;;;;;;;14.80;9.82;;;;;;;13.46;100.00;98852.13;5043535;28;20049;-85
2021/08/30 01:56:05;;;;;;;13.57;10.45;;;;;;;13.48;100.00;98854.66;5052774;28;20047;-84
2021/08/30 02:01:23;;;;;;;13.82;9.90;;;;;;;13.44;100.00;98852.34;5050979;28;20550;-85
2021/08/30 02:03:56;;;;;;;12.32;9.80;;;;;;;13.41;100.00;98849.19;5052504;28;20044;-84
2021/08/30 02:06:32;;;;;;;16.98;9.75;;;;;;;13.34;100.00;98838.28;5046163;28;20056;-85
2021/08/30 02:09:00;;;;;;;17.33;9.43;;;;;;;13.45;100.00;98839.50;5041981;28;20045;-86
2021/08/30 02:11:32;;;;;;;13.98;9.63;;;;;;;13.37;100.00;98835.13;5052307;28;20049;-85
2021/08/30 02:17:33;;;;;;;13.02;9.60;;;;;;;13.28;100.00;98828.16;5039890;28;20112;-85
2021/08/30 02:20:17;;;;;;;11.43;8.73;;;;;;;13.36;100.00;98840.78;5052607;28;20132;-85
2021/08/30 02:22:47;;;;;;;12.90;8.50;;;;;;;13.39;100.00;98826.72;5051204;28;20489;-84
2021/08/30 02:38:45;;;;;;;9.20;6.22;;;;;;;13.16;100.00;98810.72;5046812;28;20036;-86
2021/08/30 02:41:13;;;;;;;8.77;6.28;;;;;;;13.19;100.00;98824.81;5036163;28;20106;-86
2021/08/30 02:43:41;;;;;;;10.32;6.43;;;;;;;13.18;100.00;98823.09;5050300;28;20045;-85
2021/08/30 02:59:37;;;;;;;5.65;4.32;;;;;;;13.35;100.00;98820.81;5050836;28;20159;-85
2021/08/30 03:02:05;;;;;;;6.85;5.22;;;;;;;13.33;100.00;98822.06;5046595;28;20401;-86
2021/08/30 03:04:33;;;;;;;7.70;5.10;;;;;;;13.22;100.00;98808.00;5051211;28;20052;-85
2021/08/30 03:07:02;;;;;;;10.30;5.38;;;;;;;13.27;100.00;98816.38;5038360;28;20492;-85
2021/08/30 03:09:29;;;;;;;8.82;4.90;;;;;;;13.32;100.00;98817.66;5050982;28;20052;-84
2021/08/30 03:11:58;;;;;;;7.95;5.38;;;;;;;13.30;100.00;98812.41;5052425;28;20064;-85
2021/08/30 03:14:27;;;;;;;8.45;5.90;;;;;;;13.31;100.00;98810.50;5046982;28;20098;-85
2021/08/30 03:17:00;;;;;;;8.45;6.57;;;;;;;13.36;100.00;98811.59;5052117;28;20183;-85
2021/08/30 03:19:28;;;;;;;8.68;6.63;;;;;;;13.25;100.00;98791.19;5033988;28;20126;-86
2021/08/30 03:21:57;;;;;;;12.57;7.45;;;;;;;13.35;100.00;98815.34;5052403;28;20053;-85
2021/08/30 03:24:24;;;;;;;9.57;6.63;;;;;;;13.30;100.00;98806.13;5050986;28;20111;-85
2021/08/30 03:26:54;;;;;;;11.73;8.10;;;;;;;13.36;100.00;98813.50;5049870;28;20052;-85
2021/08/30 03:29:22;;;;;;;14.65;8.63;;;;;;;13.27;100.00;98800.00;5050080;28;20060;-85
2021/08/30 03:31:51;;;;;;;13.70;8.68;;;;;;;13.28;100.00;98796.25;5049836;28;20408;-85
2021/08/30 03:34:21;;;;;;;13.88;9.75;;;;;;;13.35;100.00;98809.91;5042770;28;20167;-86
2021/08/30 03:36:52;;;;;;;11.35;8.45;;;;;;;13.29;100.00;98788.88;5036473;28;20076;-84
2021/08/30 03:39:20;;;;;;;14.30;9.63;;;;;;;13.39;100.00;98800.25;5048173;28;20057;-85
2021/08/30 03:41:50;;;;;;;15.98;10.18;;;;;;;13.40;100.00;98801.94;5038579;28;20148;-85
2021/08/30 03:44:18;;;;;;;16.58;10.43;;;;;;;13.28;100.00;98795.41;5049292;28;20056;-86
2021/08/30 03:46:45;;;;;;;15.48;10.70;;;;;;;13.31;100.00;98794.97;5044820;28;20046;-86
2021/08/30 03:49:13;;;;;;;15.80;9.90;;;;;;;13.36;100.00;98800.66;5051596;28;20507;-86
2021/08/30 03:51:42;;;;;;;16.17;10.65;;;;;;;13.37;100.00;98790.56;5050946;28;20045;-86
2021/08/30 03:54:10;;;;;;;15.55;10.30;;;;;;;13.45;100.00;98810.31;5051397;28;20091;-85
2021/08/30 03:56:38;;;;;;;18.98;12.05;;;;;;;13.34;100.00;98786.41;5041120;28;20452;-85
2021/08/30 03:59:09;;;;;;;18.00;10.98;;;;;;;13.37;100.00;98794.16;5041658;28;20045;-84
2021/08/30 04:01:40;;;;;;;19.17;12.18;;;;;;;13.44;100.00;98794.13;5050071;28;20048;-85
2021/08/30 04:04:13;;;;;;;20.65;11.95;;;;;;;13.50;100.00;98798.75;5042257;28;20521;-84
2021/08/30 04:06:43;;;;;;;19.38;11.90;;;;;;;13.49;100.00;98804.41;5038693;28;20132;-86
2021/08/30 04:09:13;;;;;;;18.30;11.88;;;;;;;13.47;100.00;98801.06;5037545;28;20049;-84
2021/08/30 04:11:40;;;;;;;19.98;11.90;;;;;;;13.39;100.00;98791.22;5032308;28;20049;-86
2021/08/30 04:14:08;;;;;;;26.40;11.30;;;;;;;13.41;100.00;98791.84;5052783;28;20045;-87
2021/08/30 04:16:35;;;;;;;17.77;10.38;;;;;;;13.55;100.00;98812.63;5054698;28;20045;-85
2021/08/30 04:19:02;;;;;;;20.42;10.20;;;;;;;13.56;100.00;98808.00;5050117;28;20041;-85
2021/08/30 04:21:28;;;;;;;16.77;10.10;;;;;;;13.51;100.00;98810.53;5054947;28;20432;-85
2021/08/30 04:23:57;;;;;;;20.42;11.40;;;;;;;13.45;100.00;98793.94;5054078;28;20056;-86
2021/08/30 04:26:24;;;;;;;15.13;10.05;;;;;;;13.42;100.00;98813.47;5055658;28;20072;-87
2021/08/30 04:28:51;;;;;;;17.27;11.45;;;;;;;13.42;100.00;98801.72;5045939;28;20099;-86
2021/08/30 04:31:18;;;;;;;18.35;8.93;;;;;;;13.36;100.00;98788.91;5054340;28;20060;-87
2021/08/30 04:33:45;;;;;;;14.88;9.18;;;;;;;13.48;100.00;98810.97;5054382;28;20044;-87
2021/08/30 04:36:12;;;;;;;15.10;9.40;;;;;;;13.47;100.00;98814.72;5049626;28;20045;-88
2021/08/30 04:38:39;;;;;;;12.25;8.30;;;;;;;13.45;100.00;98813.03;5045352;28;20308;-87
2021/08/30 04:41:07;;;;;;;12.80;8.75;;;;;;;13.45;100.00;98806.75;5039956;28;20081;-87
2021/08/30 04:43:34;;;;;;;12.73;8.50;;;;;;;13.42;100.00;98804.44;5054658;28;20539;-87
2021/08/30 04:46:01;;;;;;;10.82;7.68;;;;;;;13.45;100.00;98802.13;5049863;28;20045;-88
2021/08/30 04:48:30;;;;;;;10.82;7.28;;;;;;;13.41;100.00;98808.22;5055708;28;20055;-89
2021/08/30 04:50:57;;;;;;;9.70;6.72;;;;;;;13.38;100.00;98812.22;5053521;28;20056;-88
2021/08/30 04:53:24;;;;;;;12.75;7.97;;;;;;;13.42;100.00;98818.09;5051315;28;20044;-87
2021/08/30 04:55:51;;;;;;;13.85;9.60;;;;;;;13.50;100.00;98830.69;5054698;28;20138;-89
2021/08/30 04:58:20;;;;;;;12.02;8.52;;;;;;;13.48;100.00;98805.50;5055528;28;20056;-90
2021/08/30 05:00:57;;;;;;;17.88;9.05;;;;;;;13.47;100.00;98810.09;5055633;28;20048;-90
2021/08/30 05:03:24;;;;;;;14.60;9.32;;;;;;;13.52;100.00;98814.91;5050789;28;20054;-90
2021/08/30 05:05:51;;;;;;;14.68;9.40;;;;;;;13.53;100.00;98827.53;5053931;28;20120;-88
2021/08/30 05:08:18;;;;;;;15.35;8.70;;;;;;;13.53;100.00;98827.53;5049999;28;20067;-88
2021/08/30 05:10:45;;;;;;;18.17;9.23;;;;;;;13.54;100.00;98815.56;5054686;28;20045;-88
2021/08/30 05:13:12;;;;;;;14.57;9.35;;;;;;;13.56;100.00;98819.75;5054265;28;20079;-88
2021/08/30 05:15:41;;;;;;;15.57;9.80;;;;;;;13.70;100.00;98839.69;5051882;28;20060;-89
2021/08/30 05:18:08;;;;;;;16.02;8.98;;;;;;;13.69;100.00;98842.66;5049256;28;20054;-87
2021/08/30 05:20:35;;;;;;;13.35;8.85;;;;;;;13.58;100.00;98825.84;5054154;28;20052;-88
2021/08/30 05:23:02;;;;;;;12.52;9.18;;;;;;;13.73;100.00;98843.88;5052551;28;20049;-85
2021/08/30 05:25:30;;;;;;;14.13;8.90;;;;;;;13.70;100.00;98842.44;5051068;28;20045;-88
2021/08/30 05:27:56;;;;;;;12.55;8.10;;;;;;;13.58;100.00;98819.56;5051566;28;20045;-88
2021/08/30 05:30:23;;;;;;;11.85;9.35;;;;;;;13.69;100.00;98845.38;5043784;28;20045;-87
2021/08/30 05:32:52;;;;;;;15.38;8.95;;;;;;;13.71;100.00;98833.16;5051120;28;20106;-88
2021/08/30 05:35:19;;;;;;;15.75;9.80;;;;;;;13.79;100.00;98841.16;5040290;28;20052;-87
2021/08/30 05:37:46;;;;;;;13.40;9.57;;;;;;;13.72;100.00;98843.03;5052846;28;20053;-88
2021/08/30 05:40:14;;;;;;;15.68;9.43;;;;;;;13.80;100.00;98844.69;5054012;28;20080;-88
2021/08/30 05:42:42;;;;;;;12.32;8.90;;;;;;;13.72;100.00;98834.03;5054653;28;20503;-88
2021/08/30 05:45:10;;;;;;;15.45;9.13;;;;;;;13.90;100.00;98860.66;5053383;28;20075;-87
2021/08/30 05:47:37;;;;;;;11.45;8.73;;;;;;;13.89;100.00;98846.16;5054312;28;20500;-87
2021/08/30 05:50:06;;;;;;;14.65;8.93;;;;;;;13.93;100.00;98850.13;5045894;28;20057;-85
2021/08/30 05:52:33;;;;;;;15.05;9.25;;;;;;;13.93;100.00;98844.69;5053254;28;20056;-85
2021/08/30 05:55:03;;;;;;;13.40;9.40;;;;;;;13.98;100.00;98835.84;5052412;28;20519;-86
2021/08/30 05:57:29;;;;;;;11.65;8.27;;;;;;;14.07;100.00;98848.19;5051396;28;20052;-87
2021/08/30 05:59:56;;;;;;;14.48;8.75;;;;;;;14.18;100.00;98851.31;5053661;28;20060;-84
2021/08/30 06:02:24;;;;;;;12.52;8.55;;;;;;;14.32;100.00;98844.75;5039591;28;20062;-85
2021/08/30 06:04:50;;;;;;;11.52;8.60;;;;;;;14.30;100.00;98838.66;5042772;28;20050;-87
2021/08/30 06:07:19;;;;;;;11.15;8.32;;;;;;;14.51;100.00;98838.34;5052695;28;20075;-87
2021/08/30 06:09:46;;;;;;;13.68;9.10;;;;;;;14.63;100.00;98840.41;5049948;28;20072;-89
2021/08/30 06:12:13;;;;;;;16.77;8.38;;;;;;;14.58;100.00;98832.00;5052975;28;20052;-88
2021/08/30 06:14:40;;;;;;;13.27;8.27;;;;;;;14.55;100.00;98832.44;5052632;28;20053;-87
2021/08/30 06:17:07;;;;;;;10.15;7.78;;;;;;;14.55;100.00;98835.19;5053514;28;20037;-87
2021/08/30 06:19:34;;;;;;;10.52;7.75;;;;;;;14.72;100.00;98854.69;5049584;28;20056;-87
2021/08/30 06:22:01;;;;;;;21.15;7.80;;;;;;;14.66;100.00;98835.34;5052201;28;20048;-87
2021/08/30 06:24:30;;;;;;;11.25;7.25;;;;;;;14.66;100.00;98840.84;5053661;28;20052;-87
2021/08/30 06:26:59;;;;;;;8.38;6.40;;;;;;;14.65;100.00;98855.56;5053018;28;20053;-88
2021/08/30 06:29:27;;;;;;;8.98;6.80;;;;;;;14.55;100.00;98846.94;5050932;28;20045;-87
2021/08/30 06:31:54;;;;;;;9.80;6.57;;;;;;;14.57;100.00;98847.56;5040044;28;20349;-88
2021/08/30 06:34:21;;;;;;;11.10;6.93;;;;;;;14.57;100.00;98852.19;5052676;28;20053;-88
2021/08/30 06:36:47;;;;;;;14.75;7.28;;;;;;;14.56;100.00;98837.69;5044132;28;20053;-86
2021/08/30 06:39:14;;;;;;;10.43;7.35;;;;;;;14.75;100.00;98855.06;5053060;28;20063;-87
2021/08/30 06:41:43;;;;;;;9.98;6.90;;;;;;;14.86;100.00;98856.28;5052872;28;20049;-87
2021/08/30 06:44:09;;;;;;;15.25;7.30;;;;;;;14.87;100.00;98841.53;5048850;28;20416;-86
2021/08/30 06:46:36;;;;;;;13.25;8.38;;;;;;;15.08;100.00;98867.69;5052492;28;20056;-87
2021/08/30 06:49:04;;;;;;;12.43;7.43;;;;;;;15.03;100.00;98870.28;5052553;28;20404;-87
2021/08/30 06:51:31;;;;;;;11.85;7.40;;;;;;;14.98;100.00;98848.19;5052736;28;20059;-87
2021/08/30 06:53:57;;;;;;;13.27;8.00;;;;;;;14.99;100.00;98847.97;5045342;28;20061;-87
2021/08/30 06:56:24;;;;;;;10.70;6.78;;;;;;;15.16;100.00;98861.97;5051644;28;20078;-87
2021/08/30 06:58:53;;;;;;;14.00;7.20;;;;;;;15.15;100.00;98865.75;5043413;28;20049;-87
2021/08/30 07:01:20;;;;;;;10.38;7.28;;;;;;;15.02;100.00;98854.91;5050826;28;20051;-86
2021/08/30 07:03:48;;;;;;;10.82;7.07;;;;;;;14.97;100.00;98847.34;5048716;28;20564;-86
2021/08/30 07:06:15;;;;;;;10.90;6.90;;;;;;;15.06;100.00;98872.56;5041883;28;20080;-86
2021/08/30 07:08:42;;;;;;;7.90;5.90;;;;;;;15.13;100.00;98867.03;5054563;28;20045;-85
2021/08/30 07:11:08;;;;;;;11.82;7.03;;;;;;;14.96;100.00;98842.94;5053676;28;20183;-86
2021/08/30 07:13:35;;;;;;;12.48;8.70;;;;;;;15.11;100.00;98864.50;5046097;28;20046;-86
2021/08/30 07:16:04;;;;;;;14.55;7.18;;;;;;;15.00;100.00;98846.09;5043897;28;20140;-86
2021/08/30 07:18:31;;;;;;;8.40;6.47;;;;;;;15.11;100.00;98860.94;5051458;28;20440;-85
2021/08/30 07:20:58;;;;;;;9.50;7.40;;;;;;;15.19;100.00;98864.25;5044368;28;20107;-85
2021/08/30 07:23:27;;;;;;;10.93;7.22;;;;;;;15.31;100.00;98864.38;5045678;28;20045;-85
2021/08/30 07:25:54;;;;;;;8.30;6.45;;;;;;;15.39;100.00;98876.97;5047329;28;20064;-86
2021/08/30 07:28:21;;;;;;;8.82;6.30;;;;;;;15.30;100.00;98873.66;5046266;28;20064;-85
2021/08/30 07:30:48;;;;;;;8.80;5.72;;;;;;;15.18;100.00;98873.53;5049145;28;20049;-85
2021/08/30 07:33:17;;;;;;;8.82;6.13;;;;;;;15.11;100.00;98874.63;5040364;28;20099;-85
2021/08/30 07:35:44;;;;;;;9.40;6.18;;;;;;;15.16;100.00;98881.13;5050706;28;20060;-85
2021/08/30 07:38:11;;;;;;;8.23;5.50;;;;;;;15.05;100.00;98879.09;5047317;28;20485;-85
2021/08/30 07:40:38;;;;;;;11.60;6.15;;;;;;;14.90;100.00;98878.56;5042211;28;20055;-85
2021/08/30 07:43:05;;;;;;;9.70;6.57;;;;;;;14.85;100.00;98871.84;5050605;28;20057;-85
2021/08/30 07:45:32;;;;;;;8.07;6.18;;;;;;;14.86;100.00;98886.38;5048885;28;20404;-84
2021/08/30 07:48:11;;;;;;;8.90;6.28;;;;;;;14.85;100.00;98892.91;5050327;28;20049;-85
2021/08/30 07:50:39;;;;;;;8.43;5.20;;;;;;;14.80;100.00;98882.63;5051402;28;20478;-87
2021/08/30 07:53:06;;;;;;;7.38;5.47;;;;;;;14.86;100.00;98889.97;5051014;28;20052;-86
2021/08/30 07:55:36;;;;;;;8.68;5.80;;;;;;;14.85;100.00;98884.72;5050660;28;20044;-84
2021/08/30 07:58:03;;;;;;;8.18;5.93;;;;;;;14.80;100.00;98899.03;5044502;28;20057;-83
2021/08/30 08:00:30;;;;;;;9.48;5.55;;;;;;;14.85;100.00;98910.16;5051086;28;20056;-85
2021/08/30 08:02:57;;;;;;;9.32;5.68;;;;;;;14.79;100.00;98883.69;5042806;28;20059;-86
2021/08/30 08:05:24;;;;;;;6.78;5.53;;;;;;;14.84;100.00;98903.03;5051702;28;20073;-87
2021/08/30 08:07:56;;;;;;;6.85;5.15;;;;;;;14.70;100.00;98893.19;5049342;28;20049;-86
2021/08/30 08:10:23;;;;;;;6.28;5.10;;;;;;;14.88;100.00;98908.91;5050885;28;20156;-86
2021/08/30 08:12:50;;;;;;;4.95;3.78;;;;;;;14.73;100.00;98897.41;5042694;28;20049;-89
2021/08/30 08:15:21;;;;;;;5.18;4.13;;;;;;;14.79;100.00;98913.78;5043930;28;20049;-87
2021/08/30 08:17:48;;;;;;;5.25;3.53;;;;;;;14.68;100.00;98909.84;5051172;28;20049;-87
2021/08/30 08:20:15;;;;;;;5.28;3.75;;;;;;;14.65;100.00;98913.00;5039789;28;20056;-86
2021/08/30 08:22:45;;;;;;;6.35;4.43;;;;;;;14.69;100.00;98930.69;5049671;28;20044;-87
2021/08/30 08:25:16;;;;;;;6.00;4.10;;;;;;;14.77;100.00;98921.38;5050594;28;20258;-85
2021/08/30 08:27:43;;;;;;;5.32;4.03;;;;;;;14.90;100.00;98905.94;5051981;28;20049;-82
2021/08/30 08:30:11;;;;;;;7.25;4.47;;;;;;;15.31;100.00;98913.69;5039180;28;20049;-85
2021/08/30 08:32:40;;;;;;;12.68;6.63;;;;;;;15.44;100.00;98920.94;5050278;28;20095;-85
2021/08/30 08:35:08;;;;;;;8.30;5.45;;;;;;;15.65;100.00;98918.88;5045851;28;20053;-86
2021/08/30 08:37:35;;;;;;;7.60;5.15;;;;;;;15.64;100.00;98915.31;5047960;28;20045;-84
2021/08/30 08:40:06;;;;;;;6.90;5.10;;;;;;;15.88;100.00;98923.75;5051178;28;20131;-85
2021/08/30 08:42:37;;;;;;;8.20;5.05;;;;;;;15.54;100.00;98921.28;5048014;28;20059;-88
2021/08/30 08:45:05;;;;;;;7.07;5.30;;;;;;;15.54;100.00;98932.25;5050922;28;20404;-88
2021/08/30 08:47:32;;;;;;;8.43;6.78;;;;;;;15.49;100.00;98934.81;5051324;28;20053;-86
2021/08/30 08:50:02;;;;;;;9.70;6.03;;;;;;;15.45;100.00;98932.75;5050331;28;20053;-86
2021/08/30 08:52:29;;;;;;;;;;;;;;;15.67;100.00;98934.06;5044223;28;20045;-87
2021/08/30 08:54:59;;;;;;;12.25;6.55;;;;;;;15.84;100.00;98928.88;5050120;28;19921;-85
2021/08/30 08:57:26;;;;;;;10.10;6.57;;;;;;;15.81;100.00;98918.34;5051497;28;20127;-86
2021/08/30 08:59:58;;;;;;;9.13;6.40;;;;;;;15.75;100.00;98919.22;5050127;28;20432;-88
2021/08/30 09:02:28;;;;;;;12.63;6.53;;;;;;;15.85;100.00;98918.72;5054777;28;20053;-85
2021/08/30 09:04:55;;;;;;;8.57;6.17;;;;;;;16.07;100.00;98936.44;5053312;28;20496;-86
2021/08/30 09:07:32;;;;;;;8.48;6.78;;;;;;;16.15;100.00;98938.03;5047941;28;20045;-85
2021/08/30 09:10:01;;;;;;;9.48;6.40;;;;;;;16.20;100.00;98940.97;5052800;28;20088;-85
2021/08/30 09:12:28;;;;;;;13.88;6.78;;;;;;;16.10;100.00;98929.66;5054229;28;20052;-87
2021/08/30 09:15:10;;;;;;;10.90;6.53;;;;;;;16.08;100.00;98940.03;5053650;28;20144;-85
2021/08/30 09:17:37;;;;;;;7.57;5.80;;;;;;;15.94;100.00;98925.59;5034469;28;20053;-87
2021/08/30 09:20:05;;;;;;;7.15;5.75;;;;;;;15.85;100.00;98941.53;5051097;28;20060;-85
2021/08/30 09:22:36;;;;;;;8.27;5.50;;;;;;;15.87;100.00;98941.28;5045689;28;20839;-85
2021/08/30 09:25:10;;;;;;;7.68;5.55;;;;;;;15.95;100.00;98951.13;5050528;28;20056;-85
2021/08/30 09:27:39;;;;;;;8.32;5.38;;;;;;;15.83;100.00;98935.41;5054715;28;20040;-86
2021/08/30 09:30:13;;;;;;;8.55;5.97;;;;;;;16.05;100.00;98955.03;5050051;28;20049;-84
2021/08/30 09:32:42;;;;;;;8.23;6.22;;;;;;;16.17;100.00;98951.53;5051132;28;20051;-84
2021/08/30 09:35:10;;;;;;;7.60;5.70;;;;;;;16.12;100.00;98933.00;5053618;28;20052;-84
2021/08/30 09:37:40;;;;;;;8.82;6.22;;;;;;;16.34;100.00;98947.13;5054300;28;20331;-84
2021/08/30 09:40:08;;;;;;;;;;;;;;;16.39;100.00;98944.53;5055170;28;20503;-84
2021/08/30 09:42:35;;;;;;;9.38;6.63;;;;;;;16.13;99.78;98942.09;5053727;28;19927;-84
2021/08/30 09:45:12;;;;;;;7.78;6.03;;;;;;;16.22;100.00;98955.28;5047200;28;20496;-84
2021/08/30 09:47:50;;;;;;;9.52;6.22;;;;;;;16.05;100.00;98938.56;5047153;28;20132;-85
2021/08/30 09:50:17;;;;;;;10.35;5.97;;;;;;;16.26;100.00;98952.94;5040925;28;20402;-82
2021/08/30 09:53:09;;;;;;;9.38;6.78;;;;;;;16.13;100.00;98948.41;5044612;28;20135;-83
2021/08/30 09:58:46;;;;;;;7.80;6.35;;;;;;;16.05;100.00;98948.72;5030283;28;20060;-82
2021/08/30 10:01:50;;;;;;;13.07;7.25;;;;;;;15.90;100.00;98938.09;5030881;28;20136;-82
2021/08/30 10:04:44;;;;;;;8.88;6.05;;;;;;;16.11;100.00;98939.59;5044667;28;20377;-86
2021/08/30 10:10:20;;;;;;;7.63;4.95;;;;;;;16.16;100.00;98945.22;5047572;28;20056;-86
2021/08/30 10:12:53;;;;;;;9.07;5.20;;;;;;;16.16;100.00;98941.66;5049833;28;20110;-85
2021/08/30 10:15:22;;;;;;;7.95;5.43;;;;;;;16.19;100.00;98954.91;5049765;28;20040;-86
2021/08/30 10:21:12;;;;;;;8.88;6.22;;;;;;;16.04;100.00;98945.13;5010465;28;20104;-86
2021/08/30 10:24:20;;;;;;;12.85;7.00;;;;;;;15.87;100.00;98958.56;5008400;28;20486;-86
2021/08/30 10:30:05;;;;;;;12.70;7.15;;;;;;;15.73;100.00;98954.22;4997308;28;20587;-86
2021/08/30 10:32:45;;;;;;;8.32;7.10;;;;;;;15.92;100.00;98945.00;5044979;28;20049;-86
2021/08/30 10:35:17;;;;;;;13.73;6.55;;;;;;;16.07;100.00;98965.78;5051520;28;20087;-85
2021/08/30 10:38:20;;;;;;;9.45;6.50;;;;;;;16.05;100.00;98968.75;5052210;28;20132;-86
2021/08/30 10:41:01;;;;;;;8.32;5.82;;;;;;;16.19;100.00;98957.63;4986652;28;20145;-86
2021/08/30 10:57:39;;;;;;;15.30;7.25;;;;;;;16.29;100.00;98985.41;5050643;28;20060;-85
2021/08/30 11:00:10;;;;;;;9.20;6.38;;;;;;;16.63;100.00;98977.63;5043265;28;20049;-85
2021/08/30 11:02:41;;;;;;;11.80;6.97;;;;;;;16.73;100.00;98966.94;5052323;28;20122;-85
2021/08/30 11:05:09;;;;;;;10.48;7.07;;;;;;;17.06;100.00;98973.13;5046480;28;20183;-85
2021/08/30 11:07:36;;;;;;;11.02;6.10;;;;;;;17.16;98.33;98971.50;5052082;28;20041;-85
2021/08/30 11:10:04;;;;;;;11.13;6.93;;;;;;;17.08;99.11;98963.56;5047569;28;20060;-86
2021/08/30 11:12:31;;;;;;;11.18;7.05;;;;;;;16.91;97.10;98963.38;5051633;28;20055;-84
2021/08/30 11:15:00;;;;;;;10.30;6.78;;;;;;;16.57;97.94;98973.06;5039510;28;20481;-85
2021/08/30 11:17:29;;;;;;;9.85;7.25;;;;;;;16.41;100.00;98964.38;5052031;28;20048;-86
2021/08/30 11:19:56;;;;;;;10.15;7.18;;;;;;;16.46;100.00;98977.41;5049650;28;20451;-86
2021/08/30 11:22:23;;;;;;;23.27;7.47;;;;;;;16.23;100.00;98981.66;5049055;28;20049;-86
2021/08/30 11:24:50;;;;;;;17.13;7.20;;;;;;;16.21;100.00;98996.63;5045503;28;20053;-88
2021/08/30 11:27:20;;;;;;;15.90;8.05;;;;;;;16.00;100.00;98982.25;5052053;28;20048;-87
2021/08/30 11:29:49;;;;;;;10.35;7.25;;;;;;;16.10;100.00;98990.81;5047229;28;20095;-87
2021/08/30 11:32:17;;;;;;;9.48;7.15;;;;;;;16.19;100.00;98998.78;5046460;28;20049;-86
2021/08/30 11:34:47;;;;;;;10.18;7.00;;;;;;;16.14;100.00;98988.50;5044301;28;20041;-86
2021/08/30 11:37:17;;;;;;;12.50;7.38;;;;;;;16.09;100.00;99004.75;5051240;28;20056;-87
2021/08/30 11:39:46;;;;;;;;;;;;;;;16.21;100.00;99005.72;5046256;28;20049;-86
2021/08/30 11:42:16;;;;;;;10.32;7.65;;;;;;;16.22;100.00;98998.31;5049857;28;20003;-87
2021/08/30 11:44:45;;;;;;;12.35;7.93;;;;;;;16.01;100.00;99003.16;5050545;28;20053;-85
2021/08/30 11:47:14;;;;;;;13.18;8.85;;;;;;;16.04;100.00;98994.47;5050961;28;20492;-86
2021/08/30 11:49:44;;;;;;;13.63;7.80;;;;;;;15.95;100.00;99001.31;5049597;28;20128;-86
2021/08/30 11:52:14;;;;;;;11.82;8.43;;;;;;;16.02;100.00;99012.22;5045929;28;20156;-85
2021/08/30 11:54:43;;;;;;;43.13;23.17;;;;;;;15.97;100.00;98988.19;5051253;28;20041;-85
2021/08/30 11:57:12;;;;;;;25.17;15.20;;;;;;;15.92;100.00;98988.88;5050235;28;20049;-84
2021/08/30 11:59:40;;;;;;;16.23;9.02;;;;;;;15.85;100.00;98995.47;5050560;28;20041;-86
2021/08/30 12:02:08;;;;;;;11.88;9.65;;;;;;;15.96;100.00;99010.34;5050610;28;20056;-85
2021/08/30 12:04:37;;;;;;;11.93;8.90;;;;;;;16.01;100.00;98991.34;5040937;28;20042;-86
2021/08/30 12:07:07;;;;;;;13.18;9.13;;;;;;;16.22;100.00;99003.81;5046900;28;20488;-85
2021/08/30 12:09:44;;;;;;;11.27;7.93;;;;;;;16.26;100.00;99000.38;5046321;28;20472;-87
2021/08/30 12:12:23;;;;;;;10.88;7.65;;;;;;;16.50;100.00;99005.22;5052159;28;20045;-86
2021/08/30 12:14:59;;;;;;;11.60;7.27;;;;;;;16.46;100.00;99013.06;5051702;28;20484;-87
2021/08/30 12:31:04;;;;;;;7.07;5.38;;;;;;;16.73;97.57;99007.28;5042219;28;20404;-86
2021/08/30 12:33:33;;;;;;;7.13;5.53;;;;;;;16.85;97.99;99008.19;5051113;28;20049;-87
2021/08/30 12:36:01;;;;;;;11.13;7.45;;;;;;;16.94;100.00;99006.84;5053442;28;20145;-87
2021/08/30 12:38:30;;;;;;;9.63;6.95;;;;;;;17.05;100.00;99016.22;5052071;28;20048;-86
2021/08/30 12:41:00;;;;;;;8.60;6.67;;;;;;;17.07;99.09;99014.09;5053118;28;20512;-85
2021/08/30 12:43:31;;;;;;;11.07;6.90;;;;;;;17.02;99.07;99016.66;5048789;28;20037;-83
2021/08/30 12:46:01;;;;;;;8.40;5.95;;;;;;;16.94;98.33;99014.25;5056891;28;20481;-85
2021/08/30 12:48:28;;;;;;;9.02;6.72;;;;;;;16.77;100.00;99020.31;5056434;28;20730;-85
2021/08/30 12:50:57;;;;;;;8.75;6.20;;;;;;;16.51;98.42;99024.19;5056495;28;20053;-85
2021/08/30 12:53:29;;;;;;;8.10;6.03;;;;;;;16.37;99.88;99019.91;5054633;28;20059;-85
2021/08/30 12:55:58;;;;;;;6.55;5.18;;;;;;;16.14;98.84;99024.13;5054933;28;20056;-87
2021/08/30 12:58:25;;;;;;;10.40;5.95;;;;;;;16.18;100.00;99011.63;5052599;28;20141;-85
2021/08/30 13:00:55;;;;;;;9.27;6.60;;;;;;;16.18;100.00;99013.53;5054153;28;20576;-84
2021/08/30 13:03:24;;;;;;;9.18;6.47;;;;;;;16.34;100.00;99031.34;5054348;28;20135;-84
2021/08/30 13:05:51;;;;;;;8.43;5.17;;;;;;;16.30;100.00;99027.38;5044553;28;20049;-85
2021/08/30 13:08:18;;;;;;;5.75;4.40;;;;;;;16.18;99.15;99017.13;5053780;28;20057;-84
2021/08/30 13:10:47;;;;;;;9.10;3.63;;;;;;;15.99;100.00;99020.88;5054342;28;20056;-85
2021/08/30 13:13:15;;;;;;;6.18;3.83;;;;;;;16.07;100.00;99020.59;5047502;28;20477;-83
2021/08/30 13:15:44;;;;;;;6.95;3.95;;;;;;;16.15;98.57;99031.28;5046260;28;20052;-86
2021/08/30 13:18:11;;;;;;;5.47;3.33;;;;;;;16.26;98.72;99016.03;5053798;28;20041;-85
2021/08/30 13:20:42;;;;;;;4.70;3.53;;;;;;;16.18;98.32;99021.78;5054171;28;20058;-85
2021/08/30 13:23:09;;;;;;;4.18;2.78;;;;;;;16.12;96.79;99020.75;5053780;28;20385;-85
2021/08/30 13:25:41;;;;;;;6.43;3.38;;;;;;;16.10;99.34;99017.41;5054460;28;20055;-84